sensor_id;sensor_type;location;lat;lon;timestamp;P1;durP1;ratioP1;P2;durP2;ratioP2
62925;SDS011;55732;52.248;-0.844;2023-03-01T00:01:01;6.30;;;2.40;;
62925;SDS011;55732;52.248;-0.844;2023-03-01T00:03:30;2.70;;;2.00;;
62925;SDS011;55732;52.248;-0.844;2023-03-01T00:05:57;5.30;;;2.40;;
62925;SDS011;55732;52.248;-0.844;2023-03-01T00:08:22;6.40;;;2.10;;
62925;SDS011;55732;52.248;-0.844;2023-03-01T00:10:47;2.20;;;1.70;;
62925;SDS011;55732;52.248;-0.844;2023-03-01T00:13:13;3.00;;;2.00;;
62925;SDS011;55732;52.248;-0.844;2023-03-01T00:15:39;3.80;;;2.10;;
62925;SDS011;55732;52.248;-0.844;2023-03-01T00:18:06;3.00;;;1.80;;
62925;SDS011;55732;52.248;-0.844;2023-03-01T00:20:33;4.50;;;2.10;;
62925;SDS011;55732;52.248;-0.844;2023-03-01T00:22:59;2.60;;;2.00;;
62925;SDS011;55732;52.248;-0.844;2023-03-01T00:25:24;3.00;;;2.10;;
62925;SDS011;55732;52.248;-0.844;2023-03-01T00:27:50;5.60;;;2.50;;
62925;SDS011;55732;52.248;-0.844;2023-03-01T00:30:15;2.70;;;1.40;;
62925;SDS011;55732;52.248;-0.844;2023-03-01T00:32:41;4.60;;;1.90;;
62925;SDS011;55732;52.248;-0.844;2023-03-01T00:35:06;3.90;;;2.00;;
62925;SDS011;55732;52.248;-0.844;2023-03-01T00:37:32;4.30;;;1.80;;
62925;SDS011;55732;52.248;-0.844;2023-03-01T00:39:58;4.20;;;2.00;;
62925;SDS011;55732;52.248;-0.844;2023-03-01T00:42:23;3.40;;;2.00;;
62925;SDS011;55732;52.248;-0.844;2023-03-01T00:44:49;4.10;;;1.80;;
62925;SDS011;55732;52.248;-0.844;2023-03-01T00:47:14;2.70;;;1.70;;
62925;SDS011;55732;52.248;-0.844;2023-03-01T00:49:39;2.40;;;2.20;;
62925;SDS011;55732;52.248;-0.844;2023-03-01T00:52:05;2.90;;;1.80;;
62925;SDS011;55732;52.248;-0.844;2023-03-01T00:54:31;2.20;;;1.50;;
62925;SDS011;55732;52.248;-0.844;2023-03-01T00:56:56;5.30;;;1.80;;
62925;SDS011;55732;52.248;-0.844;2023-03-01T00:59:21;6.20;;;2.00;;
62925;SDS011;55732;52.248;-0.844;2023-03-01T01:01:47;5.20;;;2.70;;
62925;SDS011;55732;52.248;-0.844;2023-03-01T01:04:12;3.00;;;2.10;;
62925;SDS011;55732;52.248;-0.844;2023-03-01T01:06:40;2.70;;;1.60;;
62925;SDS011;55732;52.248;-0.844;2023-03-01T01:09:08;7.30;;;2.20;;
62925;SDS011;55732;52.248;-0.844;2023-03-01T01:11:42;5.70;;;2.30;;
62925;SDS011;55732;52.248;-0.844;2023-03-01T01:14:09;3.70;;;1.80;;
62925;SDS011;55732;52.248;-0.844;2023-03-01T01:16:35;2.50;;;2.10;;
62925;SDS011;55732;52.248;-0.844;2023-03-01T01:19:01;3.40;;;2.00;;
62925;SDS011;55732;52.248;-0.844;2023-03-01T01:21:26;6.10;;;2.00;;
62925;SDS011;55732;52.248;-0.844;2023-03-01T01:23:52;3.60;;;2.30;;
62925;SDS011;55732;52.248;-0.844;2023-03-01T01:26:20;2.20;;;2.00;;
62925;SDS011;55732;52.248;-0.844;2023-03-01T01:28:47;2.70;;;2.10;;
62925;SDS011;55732;52.248;-0.844;2023-03-01T01:31:12;2.50;;;1.80;;
62925;SDS011;55732;52.248;-0.844;2023-03-01T01:33:38;2.50;;;1.80;;
62925;SDS011;55732;52.248;-0.844;2023-03-01T01:36:04;4.90;;;2.50;;
62925;SDS011;55732;52.248;-0.844;2023-03-01T01:38:31;4.50;;;2.20;;
62925;SDS011;55732;52.248;-0.844;2023-03-01T01:40:56;3.20;;;2.00;;
62925;SDS011;55732;52.248;-0.844;2023-03-01T01:43:24;2.40;;;2.10;;
62925;SDS011;55732;52.248;-0.844;2023-03-01T01:45:50;4.80;;;2.10;;
62925;SDS011;55732;52.248;-0.844;2023-03-01T01:48:17;4.10;;;1.90;;
62925;SDS011;55732;52.248;-0.844;2023-03-01T01:50:48;5.50;;;2.00;;
62925;SDS011;55732;52.248;-0.844;2023-03-01T01:53:23;2.10;;;1.90;;
62925;SDS011;55732;52.248;-0.844;2023-03-01T01:55:53;1.70;;;1.60;;
62925;SDS011;55732;52.248;-0.844;2023-03-01T01:58:22;4.30;;;1.70;;
62925;SDS011;55732;52.248;-0.844;2023-03-01T02:00:50;6.20;;;2.20;;
62925;SDS011;55732;52.248;-0.844;2023-03-01T02:03:20;3.00;;;1.80;;
62925;SDS011;55732;52.248;-0.844;2023-03-01T02:08:27;3.80;;;1.90;;
62925;SDS011;55732;52.248;-0.844;2023-03-01T02:10:55;3.90;;;1.80;;
62925;SDS011;55732;52.248;-0.844;2023-03-01T02:13:25;4.00;;;1.90;;
62925;SDS011;55732;52.248;-0.844;2023-03-01T02:15:51;4.10;;;2.20;;
62925;SDS011;55732;52.248;-0.844;2023-03-01T02:18:17;4.70;;;2.30;;
62925;SDS011;55732;52.248;-0.844;2023-03-01T02:20:55;4.30;;;2.10;;
62925;SDS011;55732;52.248;-0.844;2023-03-01T02:23:23;2.90;;;2.00;;
62925;SDS011;55732;52.248;-0.844;2023-03-01T02:28:36;3.90;;;2.20;;
62925;SDS011;55732;52.248;-0.844;2023-03-01T02:31:06;2.90;;;2.20;;
62925;SDS011;55732;52.248;-0.844;2023-03-01T02:33:53;2.30;;;1.90;;
62925;SDS011;55732;52.248;-0.844;2023-03-01T02:36:20;3.00;;;1.80;;
62925;SDS011;55732;52.248;-0.844;2023-03-01T02:41:23;4.60;;;2.40;;
62925;SDS011;55732;52.248;-0.844;2023-03-01T02:43:51;2.40;;;2.10;;
62925;SDS011;55732;52.248;-0.844;2023-03-01T02:46:18;3.90;;;1.90;;
62925;SDS011;55732;52.248;-0.844;2023-03-01T02:48:56;2.80;;;1.80;;
62925;SDS011;55732;52.248;-0.844;2023-03-01T02:51:42;1.90;;;1.50;;
62925;SDS011;55732;52.248;-0.844;2023-03-01T02:54:31;2.60;;;1.80;;
62925;SDS011;55732;52.248;-0.844;2023-03-01T02:57:04;1.60;;;1.50;;
62925;SDS011;55732;52.248;-0.844;2023-03-01T02:59:30;3.70;;;1.60;;
62925;SDS011;55732;52.248;-0.844;2023-03-01T03:02:04;1.50;;;1.40;;
62925;SDS011;55732;52.248;-0.844;2023-03-01T03:04:30;1.70;;;1.60;;
62925;SDS011;55732;52.248;-0.844;2023-03-01T03:06:56;2.30;;;1.50;;
62925;SDS011;55732;52.248;-0.844;2023-03-01T03:09:21;1.30;;;1.30;;
62925;SDS011;55732;52.248;-0.844;2023-03-01T03:11:46;1.50;;;1.40;;
62925;SDS011;55732;52.248;-0.844;2023-03-01T03:14:13;1.40;;;1.30;;
62925;SDS011;55732;52.248;-0.844;2023-03-01T03:16:45;1.10;;;1.10;;
62925;SDS011;55732;52.248;-0.844;2023-03-01T03:19:13;0.90;;;0.90;;
62925;SDS011;55732;52.248;-0.844;2023-03-01T03:21:39;1.50;;;1.40;;
62925;SDS011;55732;52.248;-0.844;2023-03-01T03:24:04;1.70;;;1.40;;
62925;SDS011;55732;52.248;-0.844;2023-03-01T03:26:30;1.80;;;1.70;;
62925;SDS011;55732;52.248;-0.844;2023-03-01T03:28:55;1.70;;;1.40;;
62925;SDS011;55732;52.248;-0.844;2023-03-01T03:31:22;1.50;;;1.40;;
62925;SDS011;55732;52.248;-0.844;2023-03-01T03:33:47;4.30;;;1.60;;
62925;SDS011;55732;52.248;-0.844;2023-03-01T03:36:17;2.00;;;1.40;;
62925;SDS011;55732;52.248;-0.844;2023-03-01T03:38:44;2.10;;;1.70;;
62925;SDS011;55732;52.248;-0.844;2023-03-01T03:41:10;2.10;;;1.50;;
62925;SDS011;55732;52.248;-0.844;2023-03-01T03:43:37;2.00;;;1.60;;
62925;SDS011;55732;52.248;-0.844;2023-03-01T03:46:04;2.70;;;2.50;;
62925;SDS011;55732;52.248;-0.844;2023-03-01T03:48:34;1.40;;;1.30;;
62925;SDS011;55732;52.248;-0.844;2023-03-01T03:51:03;2.80;;;1.80;;
62925;SDS011;55732;52.248;-0.844;2023-03-01T03:53:30;4.20;;;1.80;;
62925;SDS011;55732;52.248;-0.844;2023-03-01T03:55:56;1.10;;;1.00;;
62925;SDS011;55732;52.248;-0.844;2023-03-01T03:58:23;5.70;;;1.80;;
62925;SDS011;55732;52.248;-0.844;2023-03-01T04:00:54;2.80;;;1.50;;
62925;SDS011;55732;52.248;-0.844;2023-03-01T04:03:21;3.60;;;1.60;;
62925;SDS011;55732;52.248;-0.844;2023-03-01T04:05:48;2.90;;;1.70;;
62925;SDS011;55732;52.248;-0.844;2023-03-01T04:08:16;6.30;;;2.50;;
62925;SDS011;55732;52.248;-0.844;2023-03-01T04:10:45;3.80;;;2.20;;
62925;SDS011;55732;52.248;-0.844;2023-03-01T04:13:17;3.60;;;1.70;;
62925;SDS011;55732;52.248;-0.844;2023-03-01T04:15:49;3.90;;;1.70;;
62925;SDS011;55732;52.248;-0.844;2023-03-01T04:18:16;6.20;;;1.90;;
62925;SDS011;55732;52.248;-0.844;2023-03-01T04:20:43;3.70;;;1.90;;
62925;SDS011;55732;52.248;-0.844;2023-03-01T04:23:14;2.30;;;1.40;;
62925;SDS011;55732;52.248;-0.844;2023-03-01T04:25:47;3.40;;;1.70;;
62925;SDS011;55732;52.248;-0.844;2023-03-01T04:28:19;5.10;;;1.60;;
62925;SDS011;55732;52.248;-0.844;2023-03-01T04:31:08;4.50;;;1.70;;
62925;SDS011;55732;52.248;-0.844;2023-03-01T04:33:41;3.00;;;1.60;;
62925;SDS011;55732;52.248;-0.844;2023-03-01T04:36:16;5.50;;;1.80;;
62925;SDS011;55732;52.248;-0.844;2023-03-01T04:38:43;2.60;;;1.40;;
62925;SDS011;55732;52.248;-0.844;2023-03-01T04:41:12;2.20;;;1.50;;
62925;SDS011;55732;52.248;-0.844;2023-03-01T04:43:39;6.60;;;1.80;;
62925;SDS011;55732;52.248;-0.844;2023-03-01T04:46:05;4.60;;;1.50;;
62925;SDS011;55732;52.248;-0.844;2023-03-01T04:48:34;2.90;;;1.70;;
62925;SDS011;55732;52.248;-0.844;2023-03-01T04:51:01;2.50;;;1.60;;
62925;SDS011;55732;52.248;-0.844;2023-03-01T04:53:28;2.90;;;1.80;;
62925;SDS011;55732;52.248;-0.844;2023-03-01T04:55:55;10.70;;;2.50;;
62925;SDS011;55732;52.248;-0.844;2023-03-01T04:58:22;2.70;;;1.80;;
62925;SDS011;55732;52.248;-0.844;2023-03-01T05:00:49;3.30;;;1.50;;
62925;SDS011;55732;52.248;-0.844;2023-03-01T05:03:14;2.40;;;1.70;;
62925;SDS011;55732;52.248;-0.844;2023-03-01T05:05:43;4.00;;;1.80;;
62925;SDS011;55732;52.248;-0.844;2023-03-01T05:08:10;5.50;;;2.30;;
62925;SDS011;55732;52.248;-0.844;2023-03-01T05:10:43;4.50;;;1.80;;
62925;SDS011;55732;52.248;-0.844;2023-03-01T05:13:17;8.40;;;2.20;;
62925;SDS011;55732;52.248;-0.844;2023-03-01T05:15:47;8.00;;;2.40;;
62925;SDS011;55732;52.248;-0.844;2023-03-01T05:18:14;3.40;;;1.90;;
62925;SDS011;55732;52.248;-0.844;2023-03-01T05:20:40;7.80;;;2.40;;
62925;SDS011;55732;52.248;-0.844;2023-03-01T05:23:06;8.70;;;2.10;;
62925;SDS011;55732;52.248;-0.844;2023-03-01T05:25:32;3.10;;;1.80;;
62925;SDS011;55732;52.248;-0.844;2023-03-01T05:27:59;6.00;;;1.80;;
62925;SDS011;55732;52.248;-0.844;2023-03-01T05:30:32;7.20;;;2.00;;
62925;SDS011;55732;52.248;-0.844;2023-03-01T05:32:59;3.70;;;1.70;;
62925;SDS011;55732;52.248;-0.844;2023-03-01T05:35:25;3.40;;;1.70;;
62925;SDS011;55732;52.248;-0.844;2023-03-01T05:37:51;4.30;;;1.80;;
62925;SDS011;55732;52.248;-0.844;2023-03-01T05:40:19;6.90;;;1.90;;
62925;SDS011;55732;52.248;-0.844;2023-03-01T05:42:47;4.70;;;1.60;;
62925;SDS011;55732;52.248;-0.844;2023-03-01T05:45:16;5.70;;;1.90;;
62925;SDS011;55732;52.248;-0.844;2023-03-01T05:47:42;2.90;;;1.60;;
62925;SDS011;55732;52.248;-0.844;2023-03-01T05:50:10;4.40;;;1.70;;
62925;SDS011;55732;52.248;-0.844;2023-03-01T05:52:44;3.70;;;1.70;;
62925;SDS011;55732;52.248;-0.844;2023-03-01T05:55:22;4.10;;;1.60;;
62925;SDS011;55732;52.248;-0.844;2023-03-01T05:57:48;4.40;;;1.80;;
62925;SDS011;55732;52.248;-0.844;2023-03-01T06:00:15;4.80;;;1.70;;
62925;SDS011;55732;52.248;-0.844;2023-03-01T06:02:43;3.90;;;1.60;;
62925;SDS011;55732;52.248;-0.844;2023-03-01T06:05:09;2.50;;;1.50;;
62925;SDS011;55732;52.248;-0.844;2023-03-01T06:07:35;3.70;;;1.90;;
62925;SDS011;55732;52.248;-0.844;2023-03-01T06:10:01;5.70;;;1.70;;
62925;SDS011;55732;52.248;-0.844;2023-03-01T06:12:31;6.10;;;1.90;;
62925;SDS011;55732;52.248;-0.844;2023-03-01T06:14:58;5.60;;;1.40;;
62925;SDS011;55732;52.248;-0.844;2023-03-01T06:17:24;2.90;;;1.70;;
62925;SDS011;55732;52.248;-0.844;2023-03-01T06:19:49;5.40;;;1.70;;
62925;SDS011;55732;52.248;-0.844;2023-03-01T06:22:15;3.40;;;1.60;;
62925;SDS011;55732;52.248;-0.844;2023-03-01T06:24:40;3.70;;;1.40;;
62925;SDS011;55732;52.248;-0.844;2023-03-01T06:27:06;4.60;;;1.60;;
62925;SDS011;55732;52.248;-0.844;2023-03-01T06:29:31;1.70;;;1.50;;
62925;SDS011;55732;52.248;-0.844;2023-03-01T06:31:56;5.80;;;1.50;;
62925;SDS011;55732;52.248;-0.844;2023-03-01T06:34:22;2.00;;;1.40;;
62925;SDS011;55732;52.248;-0.844;2023-03-01T06:36:47;4.00;;;1.20;;
62925;SDS011;55732;52.248;-0.844;2023-03-01T06:39:13;7.10;;;1.30;;
62925;SDS011;55732;52.248;-0.844;2023-03-01T06:41:38;3.90;;;1.80;;
62925;SDS011;55732;52.248;-0.844;2023-03-01T06:44:03;4.00;;;1.30;;
62925;SDS011;55732;52.248;-0.844;2023-03-01T06:46:29;3.10;;;1.40;;
62925;SDS011;55732;52.248;-0.844;2023-03-01T06:48:55;3.70;;;1.90;;
62925;SDS011;55732;52.248;-0.844;2023-03-01T06:51:20;2.30;;;1.30;;
62925;SDS011;55732;52.248;-0.844;2023-03-01T06:53:46;3.60;;;1.50;;
62925;SDS011;55732;52.248;-0.844;2023-03-01T06:56:11;3.10;;;1.50;;
62925;SDS011;55732;52.248;-0.844;2023-03-01T06:58:37;3.90;;;1.50;;
62925;SDS011;55732;52.248;-0.844;2023-03-01T07:01:06;3.90;;;1.70;;
62925;SDS011;55732;52.248;-0.844;2023-03-01T07:03:32;3.60;;;1.50;;
62925;SDS011;55732;52.248;-0.844;2023-03-01T07:05:57;2.80;;;1.60;;
62925;SDS011;55732;52.248;-0.844;2023-03-01T07:08:23;2.70;;;1.50;;
62925;SDS011;55732;52.248;-0.844;2023-03-01T07:10:48;1.90;;;1.60;;
62925;SDS011;55732;52.248;-0.844;2023-03-01T07:13:20;6.50;;;1.60;;
62925;SDS011;55732;52.248;-0.844;2023-03-01T07:15:45;6.20;;;1.90;;
62925;SDS011;55732;52.248;-0.844;2023-03-01T07:18:11;2.80;;;1.80;;
62925;SDS011;55732;52.248;-0.844;2023-03-01T07:20:36;7.80;;;2.20;;
62925;SDS011;55732;52.248;-0.844;2023-03-01T07:23:02;3.20;;;1.80;;
62925;SDS011;55732;52.248;-0.844;2023-03-01T07:25:27;3.90;;;1.60;;
62925;SDS011;55732;52.248;-0.844;2023-03-01T07:27:53;6.10;;;1.70;;
62925;SDS011;55732;52.248;-0.844;2023-03-01T07:30:19;3.60;;;1.80;;
62925;SDS011;55732;52.248;-0.844;2023-03-01T07:32:45;3.90;;;1.80;;
62925;SDS011;55732;52.248;-0.844;2023-03-01T07:35:11;5.50;;;1.70;;
62925;SDS011;55732;52.248;-0.844;2023-03-01T07:37:36;6.00;;;1.90;;
62925;SDS011;55732;52.248;-0.844;2023-03-01T07:40:02;4.40;;;1.50;;
62925;SDS011;55732;52.248;-0.844;2023-03-01T07:42:28;5.20;;;1.90;;
62925;SDS011;55732;52.248;-0.844;2023-03-01T07:44:53;3.10;;;1.80;;
62925;SDS011;55732;52.248;-0.844;2023-03-01T07:47:19;3.80;;;2.10;;
62925;SDS011;55732;52.248;-0.844;2023-03-01T07:49:44;7.50;;;2.00;;
62925;SDS011;55732;52.248;-0.844;2023-03-01T07:52:10;6.00;;;1.80;;
62925;SDS011;55732;52.248;-0.844;2023-03-01T07:54:37;5.10;;;1.90;;
62925;SDS011;55732;52.248;-0.844;2023-03-01T07:57:03;4.80;;;1.80;;
62925;SDS011;55732;52.248;-0.844;2023-03-01T07:59:28;4.20;;;1.70;;
62925;SDS011;55732;52.248;-0.844;2023-03-01T08:01:57;5.10;;;1.40;;
62925;SDS011;55732;52.248;-0.844;2023-03-01T08:04:23;6.50;;;2.10;;
62925;SDS011;55732;52.248;-0.844;2023-03-01T08:06:52;4.20;;;1.90;;
62925;SDS011;55732;52.248;-0.844;2023-03-01T08:09:19;8.20;;;2.30;;
62925;SDS011;55732;52.248;-0.844;2023-03-01T08:11:44;3.30;;;1.70;;
62925;SDS011;55732;52.248;-0.844;2023-03-01T08:14:10;4.50;;;2.00;;
62925;SDS011;55732;52.248;-0.844;2023-03-01T08:16:36;8.40;;;2.40;;
62925;SDS011;55732;52.248;-0.844;2023-03-01T08:19:05;2.50;;;1.50;;
62925;SDS011;55732;52.248;-0.844;2023-03-01T08:21:35;3.80;;;2.10;;
62925;SDS011;55732;52.248;-0.844;2023-03-01T08:24:02;5.60;;;2.20;;
62925;SDS011;55732;52.248;-0.844;2023-03-01T08:26:28;2.40;;;1.70;;
62925;SDS011;55732;52.248;-0.844;2023-03-01T08:28:54;4.60;;;2.20;;
62925;SDS011;55732;52.248;-0.844;2023-03-01T08:31:24;6.70;;;2.10;;
62925;SDS011;55732;52.248;-0.844;2023-03-01T08:33:55;5.60;;;2.50;;
62925;SDS011;55732;52.248;-0.844;2023-03-01T08:36:24;6.40;;;2.30;;
62925;SDS011;55732;52.248;-0.844;2023-03-01T08:38:54;5.30;;;2.50;;
62925;SDS011;55732;52.248;-0.844;2023-03-01T08:41:20;6.30;;;2.40;;
62925;SDS011;55732;52.248;-0.844;2023-03-01T08:43:46;6.40;;;2.40;;
62925;SDS011;55732;52.248;-0.844;2023-03-01T08:46:12;8.80;;;2.40;;
62925;SDS011;55732;52.248;-0.844;2023-03-01T08:48:38;5.40;;;2.30;;
62925;SDS011;55732;52.248;-0.844;2023-03-01T08:51:09;7.10;;;2.30;;
62925;SDS011;55732;52.248;-0.844;2023-03-01T08:53:37;8.80;;;2.30;;
62925;SDS011;55732;52.248;-0.844;2023-03-01T08:56:03;9.20;;;2.90;;
62925;SDS011;55732;52.248;-0.844;2023-03-01T08:58:29;3.40;;;2.10;;
62925;SDS011;55732;52.248;-0.844;2023-03-01T09:00:54;8.30;;;2.20;;
62925;SDS011;55732;52.248;-0.844;2023-03-01T09:03:22;4.80;;;2.20;;
62925;SDS011;55732;52.248;-0.844;2023-03-01T09:05:49;5.00;;;1.90;;
62925;SDS011;55732;52.248;-0.844;2023-03-01T09:08:15;3.30;;;1.90;;
62925;SDS011;55732;52.248;-0.844;2023-03-01T09:10:44;4.10;;;1.70;;
62925;SDS011;55732;52.248;-0.844;2023-03-01T09:13:10;8.00;;;1.90;;
62925;SDS011;55732;52.248;-0.844;2023-03-01T09:15:36;3.50;;;1.70;;
62925;SDS011;55732;52.248;-0.844;2023-03-01T09:18:03;3.90;;;1.70;;
62925;SDS011;55732;52.248;-0.844;2023-03-01T09:20:29;3.90;;;1.90;;
62925;SDS011;55732;52.248;-0.844;2023-03-01T09:22:56;4.20;;;1.70;;
62925;SDS011;55732;52.248;-0.844;2023-03-01T09:25:22;2.80;;;1.70;;
62925;SDS011;55732;52.248;-0.844;2023-03-01T09:27:50;5.40;;;1.80;;
62925;SDS011;55732;52.248;-0.844;2023-03-01T09:30:17;2.70;;;1.70;;
62925;SDS011;55732;52.248;-0.844;2023-03-01T09:32:43;4.80;;;1.70;;
62925;SDS011;55732;52.248;-0.844;2023-03-01T09:35:10;3.70;;;1.40;;
62925;SDS011;55732;52.248;-0.844;2023-03-01T09:37:36;3.10;;;1.70;;
62925;SDS011;55732;52.248;-0.844;2023-03-01T09:40:03;3.40;;;1.70;;
62925;SDS011;55732;52.248;-0.844;2023-03-01T09:42:32;2.30;;;1.60;;
62925;SDS011;55732;52.248;-0.844;2023-03-01T09:45:01;1.90;;;1.50;;
62925;SDS011;55732;52.248;-0.844;2023-03-01T09:47:30;2.50;;;1.40;;
62925;SDS011;55732;52.248;-0.844;2023-03-01T09:50:13;3.50;;;1.30;;
62925;SDS011;55732;52.248;-0.844;2023-03-01T09:55:27;1.50;;;1.30;;
62925;SDS011;55732;52.248;-0.844;2023-03-01T10:03:17;2.90;;;1.40;;
62925;SDS011;55732;52.248;-0.844;2023-03-01T10:06:19;4.80;;;1.70;;
62925;SDS011;55732;52.248;-0.844;2023-03-01T10:08:54;3.40;;;2.00;;
62925;SDS011;55732;52.248;-0.844;2023-03-01T10:11:24;1.70;;;1.50;;
62925;SDS011;55732;52.248;-0.844;2023-03-01T10:16:47;3.70;;;1.70;;
62925;SDS011;55732;52.248;-0.844;2023-03-01T10:19:21;4.80;;;1.50;;
62925;SDS011;55732;52.248;-0.844;2023-03-01T10:21:53;3.90;;;1.60;;
62925;SDS011;55732;52.248;-0.844;2023-03-01T10:24:22;4.20;;;1.90;;
62925;SDS011;55732;52.248;-0.844;2023-03-01T10:26:54;1.80;;;1.40;;
62925;SDS011;55732;52.248;-0.844;2023-03-01T10:30:06;4.60;;;1.60;;
62925;SDS011;55732;52.248;-0.844;2023-03-01T10:32:15;5.00;;;1.80;;
62925;SDS011;55732;52.248;-0.844;2023-03-01T10:34:42;5.90;;;1.70;;
62925;SDS011;55732;52.248;-0.844;2023-03-01T10:39:53;3.10;;;1.60;;
62925;SDS011;55732;52.248;-0.844;2023-03-01T10:42:30;6.80;;;1.80;;
62925;SDS011;55732;52.248;-0.844;2023-03-01T10:45:00;8.80;;;1.90;;
62925;SDS011;55732;52.248;-0.844;2023-03-01T10:48:03;5.70;;;1.30;;
62925;SDS011;55732;52.248;-0.844;2023-03-01T10:50:30;4.20;;;1.80;;
62925;SDS011;55732;52.248;-0.844;2023-03-01T10:53:00;3.60;;;1.60;;
62925;SDS011;55732;52.248;-0.844;2023-03-01T11:01:04;4.20;;;1.20;;
62925;SDS011;55732;52.248;-0.844;2023-03-01T11:03:33;3.10;;;1.30;;
62925;SDS011;55732;52.248;-0.844;2023-03-01T11:11:19;4.90;;;1.20;;
62925;SDS011;55732;52.248;-0.844;2023-03-01T11:13:54;2.00;;;1.10;;
62925;SDS011;55732;52.248;-0.844;2023-03-01T11:16:34;2.40;;;1.10;;
62925;SDS011;55732;52.248;-0.844;2023-03-01T11:21:47;3.00;;;0.90;;
62925;SDS011;55732;52.248;-0.844;2023-03-01T11:24:19;1.50;;;1.20;;
62925;SDS011;55732;52.248;-0.844;2023-03-01T11:29:55;2.20;;;1.30;;
62925;SDS011;55732;52.248;-0.844;2023-03-01T11:32:32;2.40;;;1.40;;
62925;SDS011;55732;52.248;-0.844;2023-03-01T11:35:29;3.30;;;1.30;;
62925;SDS011;55732;52.248;-0.844;2023-03-01T11:40:24;3.90;;;2.00;;
62925;SDS011;55732;52.248;-0.844;2023-03-01T12:14:22;2.20;;;1.50;;
62925;SDS011;55732;52.248;-0.844;2023-03-01T12:22:13;2.30;;;1.10;;
62925;SDS011;55732;52.248;-0.844;2023-03-01T12:29:59;2.90;;;1.20;;
62925;SDS011;55732;52.248;-0.844;2023-03-01T12:32:29;1.50;;;1.10;;
62925;SDS011;55732;52.248;-0.844;2023-03-01T12:49:32;1.80;;;1.10;;
62925;SDS011;55732;52.248;-0.844;2023-03-01T12:52:09;2.30;;;1.30;;
62925;SDS011;55732;52.248;-0.844;2023-03-01T12:54:43;3.70;;;1.20;;
62925;SDS011;55732;52.248;-0.844;2023-03-01T12:57:26;1.10;;;0.90;;
62925;SDS011;55732;52.248;-0.844;2023-03-01T13:02:56;1.50;;;0.80;;
62925;SDS011;55732;52.248;-0.844;2023-03-01T13:08:43;2.10;;;0.80;;
62925;SDS011;55732;52.248;-0.844;2023-03-01T13:11:17;1.90;;;1.00;;
62925;SDS011;55732;52.248;-0.844;2023-03-01T13:13:46;1.10;;;0.90;;
62925;SDS011;55732;52.248;-0.844;2023-03-01T13:19:12;1.10;;;1.00;;
62925;SDS011;55732;52.248;-0.844;2023-03-01T13:21:40;2.10;;;1.00;;
62925;SDS011;55732;52.248;-0.844;2023-03-01T13:29:30;2.90;;;1.10;;
62925;SDS011;55732;52.248;-0.844;2023-03-01T13:32:13;2.20;;;1.00;;
62925;SDS011;55732;52.248;-0.844;2023-03-01T13:34:52;2.20;;;1.00;;
62925;SDS011;55732;52.248;-0.844;2023-03-01T13:37:20;2.50;;;1.10;;
62925;SDS011;55732;52.248;-0.844;2023-03-01T13:39:48;1.10;;;1.00;;
62925;SDS011;55732;52.248;-0.844;2023-03-01T13:45:01;1.80;;;0.80;;
62925;SDS011;55732;52.248;-0.844;2023-03-01T13:47:28;2.40;;;1.00;;
62925;SDS011;55732;52.248;-0.844;2023-03-01T13:49:58;0.90;;;0.70;;
62925;SDS011;55732;52.248;-0.844;2023-03-01T13:52:35;2.80;;;1.10;;
62925;SDS011;55732;52.248;-0.844;2023-03-01T13:57:53;1.50;;;1.10;;
62925;SDS011;55732;52.248;-0.844;2023-03-01T14:00:29;1.20;;;1.10;;
62925;SDS011;55732;52.248;-0.844;2023-03-01T14:03:03;2.90;;;1.10;;
62925;SDS011;55732;52.248;-0.844;2023-03-01T14:05:31;5.30;;;1.30;;
62925;SDS011;55732;52.248;-0.844;2023-03-01T14:07:58;2.30;;;1.10;;
62925;SDS011;55732;52.248;-0.844;2023-03-01T14:10:25;6.50;;;1.60;;
62925;SDS011;55732;52.248;-0.844;2023-03-01T14:21:21;1.60;;;1.10;;
62925;SDS011;55732;52.248;-0.844;2023-03-01T14:23:47;3.60;;;1.00;;
62925;SDS011;55732;52.248;-0.844;2023-03-01T14:26:13;4.10;;;1.40;;
62925;SDS011;55732;52.248;-0.844;2023-03-01T14:28:46;5.50;;;1.60;;
62925;SDS011;55732;52.248;-0.844;2023-03-01T14:34:02;2.20;;;1.40;;
62925;SDS011;55732;52.248;-0.844;2023-03-01T14:36:29;4.50;;;1.50;;
62925;SDS011;55732;52.248;-0.844;2023-03-01T14:38:56;2.90;;;1.30;;
62925;SDS011;55732;52.248;-0.844;2023-03-01T14:41:31;2.40;;;1.10;;
62925;SDS011;55732;52.248;-0.844;2023-03-01T14:44:04;4.50;;;1.60;;
62925;SDS011;55732;52.248;-0.844;2023-03-01T14:46:37;1.60;;;1.00;;
62925;SDS011;55732;52.248;-0.844;2023-03-01T14:51:54;2.70;;;1.20;;
62925;SDS011;55732;52.248;-0.844;2023-03-01T14:54:41;8.50;;;1.90;;
62925;SDS011;55732;52.248;-0.844;2023-03-01T14:57:23;5.00;;;1.40;;
62925;SDS011;55732;52.248;-0.844;2023-03-01T14:59:53;1.50;;;1.10;;
62925;SDS011;55732;52.248;-0.844;2023-03-01T15:02:23;2.30;;;1.30;;
62925;SDS011;55732;52.248;-0.844;2023-03-01T15:04:51;3.00;;;1.50;;
62925;SDS011;55732;52.248;-0.844;2023-03-01T15:07:21;4.00;;;1.30;;
62925;SDS011;55732;52.248;-0.844;2023-03-01T15:09:51;8.60;;;1.50;;
62925;SDS011;55732;52.248;-0.844;2023-03-01T15:14:54;3.90;;;1.50;;
62925;SDS011;55732;52.248;-0.844;2023-03-01T15:17:34;4.70;;;1.70;;
62925;SDS011;55732;52.248;-0.844;2023-03-01T15:20:04;2.50;;;1.40;;
62925;SDS011;55732;52.248;-0.844;2023-03-01T15:22:32;4.80;;;1.40;;
62925;SDS011;55732;52.248;-0.844;2023-03-01T15:24:58;1.70;;;1.10;;
62925;SDS011;55732;52.248;-0.844;2023-03-01T15:27:24;3.80;;;1.60;;
62925;SDS011;55732;52.248;-0.844;2023-03-01T15:29:53;4.40;;;1.70;;
62925;SDS011;55732;52.248;-0.844;2023-03-01T15:32:31;3.80;;;1.60;;
62925;SDS011;55732;52.248;-0.844;2023-03-01T15:34:59;4.20;;;1.90;;
62925;SDS011;55732;52.248;-0.844;2023-03-01T15:37:40;7.90;;;1.80;;
62925;SDS011;55732;52.248;-0.844;2023-03-01T15:42:46;5.50;;;2.30;;
62925;SDS011;55732;52.248;-0.844;2023-03-01T15:47:50;7.80;;;2.50;;
62925;SDS011;55732;52.248;-0.844;2023-03-01T15:50:19;5.90;;;2.00;;
62925;SDS011;55732;52.248;-0.844;2023-03-01T15:52:46;5.50;;;2.30;;
62925;SDS011;55732;52.248;-0.844;2023-03-01T15:55:21;3.80;;;2.30;;
62925;SDS011;55732;52.248;-0.844;2023-03-01T15:57:48;6.60;;;3.30;;
62925;SDS011;55732;52.248;-0.844;2023-03-01T16:00:15;6.40;;;2.20;;
62925;SDS011;55732;52.248;-0.844;2023-03-01T16:02:42;5.40;;;2.40;;
62925;SDS011;55732;52.248;-0.844;2023-03-01T16:07:46;6.00;;;1.80;;
62925;SDS011;55732;52.248;-0.844;2023-03-01T16:10:11;5.40;;;2.80;;
62925;SDS011;55732;52.248;-0.844;2023-03-01T16:12:37;5.40;;;2.00;;
62925;SDS011;55732;52.248;-0.844;2023-03-01T16:15:04;3.80;;;2.20;;
62925;SDS011;55732;52.248;-0.844;2023-03-01T16:17:38;6.60;;;2.60;;
62925;SDS011;55732;52.248;-0.844;2023-03-01T16:20:04;5.50;;;2.70;;
62925;SDS011;55732;52.248;-0.844;2023-03-01T16:22:30;8.10;;;2.60;;
62925;SDS011;55732;52.248;-0.844;2023-03-01T16:24:56;4.60;;;2.50;;
62925;SDS011;55732;52.248;-0.844;2023-03-01T16:27:21;1.80;;;1.50;;
62925;SDS011;55732;52.248;-0.844;2023-03-01T16:29:47;5.60;;;2.80;;
62925;SDS011;55732;52.248;-0.844;2023-03-01T16:32:12;4.10;;;2.30;;
62925;SDS011;55732;52.248;-0.844;2023-03-01T16:34:38;4.40;;;1.80;;
62925;SDS011;55732;52.248;-0.844;2023-03-01T16:37:03;8.00;;;2.50;;
62925;SDS011;55732;52.248;-0.844;2023-03-01T16:39:29;5.80;;;2.10;;
62925;SDS011;55732;52.248;-0.844;2023-03-01T16:41:54;3.80;;;2.00;;
62925;SDS011;55732;52.248;-0.844;2023-03-01T16:44:20;7.40;;;2.30;;
62925;SDS011;55732;52.248;-0.844;2023-03-01T16:46:45;5.00;;;1.90;;
62925;SDS011;55732;52.248;-0.844;2023-03-01T16:49:10;6.90;;;1.80;;
62925;SDS011;55732;52.248;-0.844;2023-03-01T16:51:36;4.00;;;2.00;;
62925;SDS011;55732;52.248;-0.844;2023-03-01T16:54:02;6.80;;;2.30;;
62925;SDS011;55732;52.248;-0.844;2023-03-01T16:56:29;9.10;;;1.90;;
62925;SDS011;55732;52.248;-0.844;2023-03-01T16:58:56;6.40;;;2.20;;
62925;SDS011;55732;52.248;-0.844;2023-03-01T17:01:21;7.10;;;3.60;;
62925;SDS011;55732;52.248;-0.844;2023-03-01T17:03:51;7.00;;;3.50;;